sensor_id;sensor_type;location;lat;lon;timestamp;P1;durP1;ratioP1;P2;durP2;ratioP2
23270;SDS011;11804;51.118;17.058;2023-04-30T00:00:10;12.60;;;7.47;;
23270;SDS011;11804;51.118;17.058;2023-04-30T00:02:38;9.80;;;6.67;;
23270;SDS011;11804;51.118;17.058;2023-04-30T00:05:08;11.13;;;6.53;;
23270;SDS011;11804;51.118;17.058;2023-04-30T00:07:35;12.43;;;7.50;;
23270;SDS011;11804;51.118;17.058;2023-04-30T00:10:05;10.57;;;6.57;;
23270;SDS011;11804;51.118;17.058;2023-04-30T00:12:34;11.13;;;6.97;;
23270;SDS011;11804;51.118;17.058;2023-04-30T00:15:02;10.93;;;7.37;;
23270;SDS011;11804;51.118;17.058;2023-04-30T00:17:29;10.27;;;6.87;;
23270;SDS011;11804;51.118;17.058;2023-04-30T00:19:57;13.20;;;7.17;;
23270;SDS011;11804;51.118;17.058;2023-04-30T00:22:25;10.30;;;6.87;;
23270;SDS011;11804;51.118;17.058;2023-04-30T00:24:53;11.17;;;6.67;;
23270;SDS011;11804;51.118;17.058;2023-04-30T00:27:21;12.87;;;7.47;;
23270;SDS011;11804;51.118;17.058;2023-04-30T00:29:50;12.57;;;7.90;;
23270;SDS011;11804;51.118;17.058;2023-04-30T00:32:17;10.60;;;6.60;;
23270;SDS011;11804;51.118;17.058;2023-04-30T00:34:45;11.17;;;6.83;;
23270;SDS011;11804;51.118;17.058;2023-04-30T00:37:12;10.97;;;6.90;;
23270;SDS011;11804;51.118;17.058;2023-04-30T00:39:40;13.03;;;7.40;;
23270;SDS011;11804;51.118;17.058;2023-04-30T00:42:08;11.07;;;7.10;;
23270;SDS011;11804;51.118;17.058;2023-04-30T00:44:35;11.00;;;6.60;;
23270;SDS011;11804;51.118;17.058;2023-04-30T00:47:03;11.27;;;6.93;;
23270;SDS011;11804;51.118;17.058;2023-04-30T00:49:30;13.00;;;6.90;;
23270;SDS011;11804;51.118;17.058;2023-04-30T00:51:58;13.03;;;6.60;;
23270;SDS011;11804;51.118;17.058;2023-04-30T00:54:26;14.97;;;8.13;;
23270;SDS011;11804;51.118;17.058;2023-04-30T00:56:54;10.63;;;6.90;;
23270;SDS011;11804;51.118;17.058;2023-04-30T00:59:22;11.00;;;6.53;;
23270;SDS011;11804;51.118;17.058;2023-04-30T01:01:50;11.40;;;7.40;;
23270;SDS011;11804;51.118;17.058;2023-04-30T01:04:19;11.77;;;7.00;;
23270;SDS011;11804;51.118;17.058;2023-04-30T01:06:46;10.47;;;6.47;;
23270;SDS011;11804;51.118;17.058;2023-04-30T01:09:14;11.80;;;7.23;;
23270;SDS011;11804;51.118;17.058;2023-04-30T01:14:53;11.00;;;6.93;;
23270;SDS011;11804;51.118;17.058;2023-04-30T01:18:38;14.60;;;7.60;;
23270;SDS011;11804;51.118;17.058;2023-04-30T01:20:22;11.27;;;7.03;;
23270;SDS011;11804;51.118;17.058;2023-04-30T01:28:16;12.37;;;7.57;;
23270;SDS011;11804;51.118;17.058;2023-04-30T01:30:42;11.70;;;7.07;;
23270;SDS011;11804;51.118;17.058;2023-04-30T01:33:11;10.47;;;6.80;;
23270;SDS011;11804;51.118;17.058;2023-04-30T01:35:43;11.83;;;7.30;;
23270;SDS011;11804;51.118;17.058;2023-04-30T01:41:08;12.80;;;6.83;;
23270;SDS011;11804;51.118;17.058;2023-04-30T01:43:39;12.73;;;7.10;;
23270;SDS011;11804;51.118;17.058;2023-04-30T01:46:30;11.77;;;7.10;;
23270;SDS011;11804;51.118;17.058;2023-04-30T01:49:14;11.53;;;7.47;;
23270;SDS011;11804;51.118;17.058;2023-04-30T01:51:47;12.47;;;7.03;;
23270;SDS011;11804;51.118;17.058;2023-04-30T01:54:35;13.63;;;7.10;;
23270;SDS011;11804;51.118;17.058;2023-04-30T01:57:05;8.87;;;6.07;;
23270;SDS011;11804;51.118;17.058;2023-04-30T01:59:34;10.60;;;6.67;;
23270;SDS011;11804;51.118;17.058;2023-04-30T02:02:05;12.20;;;7.43;;
23270;SDS011;11804;51.118;17.058;2023-04-30T02:04:33;12.33;;;6.60;;
23270;SDS011;11804;51.118;17.058;2023-04-30T02:07:01;11.73;;;7.10;;
23270;SDS011;11804;51.118;17.058;2023-04-30T02:09:29;11.07;;;7.07;;
23270;SDS011;11804;51.118;17.058;2023-04-30T02:11:57;10.83;;;6.57;;
23270;SDS011;11804;51.118;17.058;2023-04-30T02:14:24;10.87;;;6.67;;
23270;SDS011;11804;51.118;17.058;2023-04-30T02:16:52;11.30;;;6.90;;
23270;SDS011;11804;51.118;17.058;2023-04-30T02:19:20;11.40;;;6.60;;
23270;SDS011;11804;51.118;17.058;2023-04-30T02:21:48;10.73;;;6.67;;
23270;SDS011;11804;51.118;17.058;2023-04-30T02:24:15;9.70;;;6.90;;
23270;SDS011;11804;51.118;17.058;2023-04-30T02:26:43;10.70;;;6.27;;
23270;SDS011;11804;51.118;17.058;2023-04-30T02:29:10;11.03;;;7.03;;
23270;SDS011;11804;51.118;17.058;2023-04-30T02:31:38;10.93;;;7.00;;
23270;SDS011;11804;51.118;17.058;2023-04-30T02:34:07;11.80;;;6.70;;
23270;SDS011;11804;51.118;17.058;2023-04-30T02:36:35;13.90;;;6.90;;
23270;SDS011;11804;51.118;17.058;2023-04-30T02:39:02;10.30;;;6.73;;
23270;SDS011;11804;51.118;17.058;2023-04-30T02:41:30;12.67;;;7.70;;
23270;SDS011;11804;51.118;17.058;2023-04-30T02:43:57;9.63;;;6.67;;
23270;SDS011;11804;51.118;17.058;2023-04-30T02:46:26;10.13;;;6.37;;
23270;SDS011;11804;51.118;17.058;2023-04-30T02:48:53;13.47;;;6.97;;
23270;SDS011;11804;51.118;17.058;2023-04-30T02:51:21;13.13;;;7.03;;
23270;SDS011;11804;51.118;17.058;2023-04-30T02:53:49;11.83;;;7.23;;
23270;SDS011;11804;51.118;17.058;2023-04-30T02:56:16;12.30;;;6.70;;
23270;SDS011;11804;51.118;17.058;2023-04-30T02:58:44;12.03;;;7.27;;
23270;SDS011;11804;51.118;17.058;2023-04-30T03:01:12;10.17;;;6.43;;
23270;SDS011;11804;51.118;17.058;2023-04-30T03:03:41;13.20;;;6.83;;
23270;SDS011;11804;51.118;17.058;2023-04-30T03:06:08;14.43;;;6.97;;
23270;SDS011;11804;51.118;17.058;2023-04-30T03:08:36;10.47;;;6.83;;
23270;SDS011;11804;51.118;17.058;2023-04-30T03:11:03;11.97;;;6.40;;
23270;SDS011;11804;51.118;17.058;2023-04-30T03:13:31;9.87;;;6.80;;
23270;SDS011;11804;51.118;17.058;2023-04-30T03:16:02;12.57;;;7.13;;
23270;SDS011;11804;51.118;17.058;2023-04-30T03:18:31;11.13;;;6.50;;
23270;SDS011;11804;51.118;17.058;2023-04-30T03:20:58;11.63;;;7.10;;
23270;SDS011;11804;51.118;17.058;2023-04-30T03:23:26;12.97;;;7.30;;
23270;SDS011;11804;51.118;17.058;2023-04-30T03:25:54;14.77;;;6.50;;
23270;SDS011;11804;51.118;17.058;2023-04-30T03:28:21;14.70;;;6.33;;
23270;SDS011;11804;51.118;17.058;2023-04-30T03:30:49;9.53;;;5.93;;
23270;SDS011;11804;51.118;17.058;2023-04-30T03:33:16;11.17;;;7.03;;
23270;SDS011;11804;51.118;17.058;2023-04-30T03:35:44;10.93;;;6.50;;
23270;SDS011;11804;51.118;17.058;2023-04-30T03:38:12;9.67;;;6.40;;
23270;SDS011;11804;51.118;17.058;2023-04-30T03:40:40;11.77;;;6.33;;
23270;SDS011;11804;51.118;17.058;2023-04-30T03:43:07;10.30;;;6.00;;
23270;SDS011;11804;51.118;17.058;2023-04-30T03:45:35;10.80;;;6.40;;
23270;SDS011;11804;51.118;17.058;2023-04-30T03:48:03;10.57;;;6.13;;
23270;SDS011;11804;51.118;17.058;2023-04-30T03:50:32;12.33;;;6.93;;
23270;SDS011;11804;51.118;17.058;2023-04-30T03:53:00;16.80;;;7.20;;
23270;SDS011;11804;51.118;17.058;2023-04-30T03:55:27;11.13;;;6.77;;
23270;SDS011;11804;51.118;17.058;2023-04-30T03:57:55;10.60;;;6.40;;
23270;SDS011;11804;51.118;17.058;2023-04-30T04:00:23;10.23;;;6.50;;
23270;SDS011;11804;51.118;17.058;2023-04-30T04:02:51;11.00;;;6.57;;
23270;SDS011;11804;51.118;17.058;2023-04-30T04:05:18;9.37;;;5.83;;
23270;SDS011;11804;51.118;17.058;2023-04-30T04:07:46;11.63;;;6.37;;
23270;SDS011;11804;51.118;17.058;2023-04-30T04:10:13;8.90;;;6.30;;
23270;SDS011;11804;51.118;17.058;2023-04-30T04:12:41;10.83;;;6.00;;
23270;SDS011;11804;51.118;17.058;2023-04-30T04:15:09;9.33;;;6.23;;
23270;SDS011;11804;51.118;17.058;2023-04-30T04:17:38;9.93;;;5.93;;
23270;SDS011;11804;51.118;17.058;2023-04-30T04:20:06;10.33;;;5.87;;
23270;SDS011;11804;51.118;17.058;2023-04-30T04:22:34;11.10;;;6.50;;
23270;SDS011;11804;51.118;17.058;2023-04-30T04:25:02;9.57;;;5.17;;
23270;SDS011;11804;51.118;17.058;2023-04-30T04:27:29;7.37;;;5.23;;
23270;SDS011;11804;51.118;17.058;2023-04-30T04:29:57;10.07;;;5.47;;
23270;SDS011;11804;51.118;17.058;2023-04-30T04:32:24;8.43;;;5.23;;
23270;SDS011;11804;51.118;17.058;2023-04-30T04:34:53;11.13;;;5.50;;
23270;SDS011;11804;51.118;17.058;2023-04-30T04:37:21;9.30;;;5.23;;
23270;SDS011;11804;51.118;17.058;2023-04-30T04:39:49;7.13;;;4.73;;
23270;SDS011;11804;51.118;17.058;2023-04-30T04:42:17;10.10;;;6.13;;
23270;SDS011;11804;51.118;17.058;2023-04-30T04:44:45;8.23;;;5.30;;
23270;SDS011;11804;51.118;17.058;2023-04-30T04:47:13;10.30;;;5.23;;
23270;SDS011;11804;51.118;17.058;2023-04-30T04:49:41;9.87;;;5.30;;
23270;SDS011;11804;51.118;17.058;2023-04-30T04:52:09;10.37;;;5.00;;
23270;SDS011;11804;51.118;17.058;2023-04-30T04:54:36;6.53;;;4.43;;
23270;SDS011;11804;51.118;17.058;2023-04-30T04:57:04;6.57;;;4.37;;
23270;SDS011;11804;51.118;17.058;2023-04-30T04:59:32;5.43;;;3.80;;
23270;SDS011;11804;51.118;17.058;2023-04-30T05:01:59;6.00;;;3.80;;
23270;SDS011;11804;51.118;17.058;2023-04-30T05:04:27;8.10;;;4.23;;
23270;SDS011;11804;51.118;17.058;2023-04-30T05:06:55;6.53;;;4.07;;
23270;SDS011;11804;51.118;17.058;2023-04-30T05:09:22;6.33;;;3.77;;
23270;SDS011;11804;51.118;17.058;2023-04-30T05:11:50;7.10;;;4.53;;
23270;SDS011;11804;51.118;17.058;2023-04-30T05:14:17;5.63;;;3.90;;
23270;SDS011;11804;51.118;17.058;2023-04-30T05:16:46;6.03;;;4.40;;
23270;SDS011;11804;51.118;17.058;2023-04-30T05:19:14;6.13;;;4.30;;
23270;SDS011;11804;51.118;17.058;2023-04-30T05:21:43;5.73;;;4.03;;
23270;SDS011;11804;51.118;17.058;2023-04-30T05:24:11;5.20;;;3.65;;
23270;SDS011;11804;51.118;17.058;2023-04-30T05:26:39;5.20;;;3.52;;
23270;SDS011;11804;51.118;17.058;2023-04-30T05:29:07;6.08;;;3.20;;
23270;SDS011;11804;51.118;17.058;2023-04-30T05:31:36;6.37;;;3.60;;
23270;SDS011;11804;51.118;17.058;2023-04-30T05:34:04;5.55;;;3.70;;
23270;SDS011;11804;51.118;17.058;2023-04-30T05:36:31;6.05;;;3.50;;
23270;SDS011;11804;51.118;17.058;2023-04-30T05:38:59;4.47;;;3.37;;
23270;SDS011;11804;51.118;17.058;2023-04-30T05:41:26;5.65;;;3.75;;
23270;SDS011;11804;51.118;17.058;2023-04-30T05:43:54;5.05;;;3.90;;
23270;SDS011;11804;51.118;17.058;2023-04-30T05:46:22;6.00;;;3.40;;
23270;SDS011;11804;51.118;17.058;2023-04-30T05:48:49;5.03;;;3.20;;
23270;SDS011;11804;51.118;17.058;2023-04-30T05:51:17;7.30;;;3.65;;
23270;SDS011;11804;51.118;17.058;2023-04-30T05:53:45;5.15;;;3.25;;
23270;SDS011;11804;51.118;17.058;2023-04-30T05:56:12;4.97;;;2.90;;
23270;SDS011;11804;51.118;17.058;2023-04-30T05:58:40;5.05;;;2.87;;
23270;SDS011;11804;51.118;17.058;2023-04-30T06:01:07;4.35;;;3.20;;
23270;SDS011;11804;51.118;17.058;2023-04-30T06:03:36;5.75;;;3.10;;
23270;SDS011;11804;51.118;17.058;2023-04-30T06:06:03;4.37;;;2.90;;
23270;SDS011;11804;51.118;17.058;2023-04-30T06:08:31;3.80;;;2.90;;
23270;SDS011;11804;51.118;17.058;2023-04-30T06:10:59;3.70;;;3.17;;
23270;SDS011;11804;51.118;17.058;2023-04-30T06:13:28;3.62;;;2.77;;
23270;SDS011;11804;51.118;17.058;2023-04-30T06:15:57;6.53;;;4.35;;
23270;SDS011;11804;51.118;17.058;2023-04-30T06:18:25;34.58;;;16.90;;
23270;SDS011;11804;51.118;17.058;2023-04-30T06:20:52;8.53;;;4.65;;
23270;SDS011;11804;51.118;17.058;2023-04-30T06:23:20;4.45;;;2.75;;
23270;SDS011;11804;51.118;17.058;2023-04-30T06:25:48;4.70;;;3.00;;
23270;SDS011;11804;51.118;17.058;2023-04-30T06:28:15;7.45;;;4.58;;
23270;SDS011;11804;51.118;17.058;2023-04-30T06:30:43;3.47;;;2.80;;
23270;SDS011;11804;51.118;17.058;2023-04-30T06:33:10;6.17;;;3.60;;
23270;SDS011;11804;51.118;17.058;2023-04-30T06:35:38;4.20;;;3.25;;
23270;SDS011;11804;51.118;17.058;2023-04-30T06:38:06;6.70;;;4.03;;
23270;SDS011;11804;51.118;17.058;2023-04-30T06:40:33;5.75;;;4.30;;
23270;SDS011;11804;51.118;17.058;2023-04-30T06:43:01;5.37;;;4.40;;
23270;SDS011;11804;51.118;17.058;2023-04-30T06:45:29;4.47;;;3.08;;
23270;SDS011;11804;51.118;17.058;2023-04-30T06:47:56;3.98;;;3.05;;
23270;SDS011;11804;51.118;17.058;2023-04-30T06:50:24;4.55;;;2.50;;
23270;SDS011;11804;51.118;17.058;2023-04-30T06:52:51;4.37;;;2.90;;
23270;SDS011;11804;51.118;17.058;2023-04-30T06:55:19;4.25;;;2.75;;
23270;SDS011;11804;51.118;17.058;2023-04-30T06:57:47;3.90;;;3.10;;
23270;SDS011;11804;51.118;17.058;2023-04-30T07:00:14;5.95;;;2.90;;
23270;SDS011;11804;51.118;17.058;2023-04-30T07:02:42;5.22;;;3.20;;
23270;SDS011;11804;51.118;17.058;2023-04-30T07:05:11;3.80;;;2.80;;
23270;SDS011;11804;51.118;17.058;2023-04-30T07:07:39;4.45;;;2.92;;
23270;SDS011;11804;51.118;17.058;2023-04-30T07:10:07;4.35;;;3.08;;
23270;SDS011;11804;51.118;17.058;2023-04-30T07:12:35;5.10;;;2.65;;
23270;SDS011;11804;51.118;17.058;2023-04-30T07:15:04;8.55;;;3.20;;
23270;SDS011;11804;51.118;17.058;2023-04-30T07:17:32;4.00;;;2.58;;
23270;SDS011;11804;51.118;17.058;2023-04-30T07:20:00;3.70;;;2.50;;
23270;SDS011;11804;51.118;17.058;2023-04-30T07:22:32;4.55;;;2.40;;
23270;SDS011;11804;51.118;17.058;2023-04-30T07:25:00;4.70;;;2.45;;
23270;SDS011;11804;51.118;17.058;2023-04-30T07:27:28;5.10;;;2.72;;
23270;SDS011;11804;51.118;17.058;2023-04-30T07:29:56;2.87;;;2.30;;
23270;SDS011;11804;51.118;17.058;2023-04-30T07:32:23;4.35;;;2.45;;
23270;SDS011;11804;51.118;17.058;2023-04-30T07:34:52;3.40;;;2.52;;
23270;SDS011;11804;51.118;17.058;2023-04-30T07:37:20;4.90;;;2.33;;
23270;SDS011;11804;51.118;17.058;2023-04-30T07:39:47;5.00;;;2.80;;
23270;SDS011;11804;51.118;17.058;2023-04-30T07:42:15;4.83;;;2.77;;
23270;SDS011;11804;51.118;17.058;2023-04-30T07:44:43;3.60;;;2.40;;
23270;SDS011;11804;51.118;17.058;2023-04-30T07:47:11;4.75;;;3.08;;
23270;SDS011;11804;51.118;17.058;2023-04-30T07:49:38;4.12;;;2.45;;
23270;SDS011;11804;51.118;17.058;2023-04-30T07:52:06;4.42;;;2.60;;
23270;SDS011;11804;51.118;17.058;2023-04-30T07:54:35;4.45;;;2.55;;
23270;SDS011;11804;51.118;17.058;2023-04-30T07:57:05;3.70;;;2.42;;
23270;SDS011;11804;51.118;17.058;2023-04-30T07:59:33;4.75;;;2.45;;
23270;SDS011;11804;51.118;17.058;2023-04-30T08:02:01;2.98;;;1.90;;
23270;SDS011;11804;51.118;17.058;2023-04-30T08:04:30;4.75;;;2.62;;
23270;SDS011;11804;51.118;17.058;2023-04-30T08:06:57;4.25;;;2.10;;
23270;SDS011;11804;51.118;17.058;2023-04-30T08:09:26;4.35;;;2.40;;
23270;SDS011;11804;51.118;17.058;2023-04-30T08:11:54;3.25;;;2.30;;
23270;SDS011;11804;51.118;17.058;2023-04-30T08:14:23;3.87;;;2.60;;
23270;SDS011;11804;51.118;17.058;2023-04-30T08:16:51;4.25;;;2.27;;
23270;SDS011;11804;51.118;17.058;2023-04-30T08:19:19;2.85;;;2.10;;
23270;SDS011;11804;51.118;17.058;2023-04-30T08:21:46;2.65;;;1.92;;
23270;SDS011;11804;51.118;17.058;2023-04-30T08:24:15;3.55;;;2.47;;
23270;SDS011;11804;51.118;17.058;2023-04-30T08:26:43;2.58;;;2.15;;
23270;SDS011;11804;51.118;17.058;2023-04-30T08:29:10;5.25;;;2.77;;
23270;SDS011;11804;51.118;17.058;2023-04-30T08:31:38;2.87;;;2.10;;
23270;SDS011;11804;51.118;17.058;2023-04-30T08:34:05;3.65;;;2.50;;
23270;SDS011;11804;51.118;17.058;2023-04-30T08:36:33;3.20;;;2.20;;
23270;SDS011;11804;51.118;17.058;2023-04-30T08:39:00;3.58;;;2.10;;
23270;SDS011;11804;51.118;17.058;2023-04-30T08:41:30;4.05;;;2.30;;
23270;SDS011;11804;51.118;17.058;2023-04-30T08:44:00;2.95;;;2.33;;
23270;SDS011;11804;51.118;17.058;2023-04-30T08:46:31;2.70;;;1.90;;
23270;SDS011;11804;51.118;17.058;2023-04-30T08:49:02;4.60;;;2.58;;
23270;SDS011;11804;51.118;17.058;2023-04-30T08:51:30;2.62;;;2.05;;
23270;SDS011;11804;51.118;17.058;2023-04-30T08:54:00;2.98;;;2.05;;
23270;SDS011;11804;51.118;17.058;2023-04-30T08:56:27;4.10;;;1.90;;
23270;SDS011;11804;51.118;17.058;2023-04-30T08:58:57;2.60;;;1.98;;
23270;SDS011;11804;51.118;17.058;2023-04-30T09:01:25;3.85;;;1.70;;
23270;SDS011;11804;51.118;17.058;2023-04-30T09:03:56;3.25;;;2.10;;
23270;SDS011;11804;51.118;17.058;2023-04-30T09:06:23;3.98;;;2.33;;
23270;SDS011;11804;51.118;17.058;2023-04-30T09:08:52;3.85;;;2.22;;
23270;SDS011;11804;51.118;17.058;2023-04-30T09:11:26;3.50;;;2.10;;
23270;SDS011;11804;51.118;17.058;2023-04-30T09:13:56;2.92;;;1.77;;
23270;SDS011;11804;51.118;17.058;2023-04-30T09:16:26;3.80;;;1.87;;
23270;SDS011;11804;51.118;17.058;2023-04-30T09:18:58;1.67;;;1.37;;
23270;SDS011;11804;51.118;17.058;2023-04-30T09:21:34;1.55;;;1.20;;
23270;SDS011;11804;51.118;17.058;2023-04-30T09:24:02;3.85;;;1.60;;
23270;SDS011;11804;51.118;17.058;2023-04-30T09:26:33;3.47;;;1.50;;
23270;SDS011;11804;51.118;17.058;2023-04-30T09:29:02;2.95;;;1.50;;
23270;SDS011;11804;51.118;17.058;2023-04-30T09:31:38;2.50;;;1.55;;
23270;SDS011;11804;51.118;17.058;2023-04-30T09:34:07;3.70;;;1.50;;
23270;SDS011;11804;51.118;17.058;2023-04-30T09:36:50;3.17;;;1.75;;
23270;SDS011;11804;51.118;17.058;2023-04-30T09:39:21;4.53;;;2.27;;
23270;SDS011;11804;51.118;17.058;2023-04-30T09:41:49;2.27;;;1.45;;
23270;SDS011;11804;51.118;17.058;2023-04-30T09:44:30;2.15;;;1.47;;
23270;SDS011;11804;51.118;17.058;2023-04-30T09:47:00;3.95;;;1.42;;
23270;SDS011;11804;51.118;17.058;2023-04-30T09:49:28;2.75;;;1.42;;
23270;SDS011;11804;51.118;17.058;2023-04-30T09:51:57;3.60;;;2.02;;
23270;SDS011;11804;51.118;17.058;2023-04-30T09:54:27;3.30;;;1.52;;
23270;SDS011;11804;51.118;17.058;2023-04-30T09:56:57;3.35;;;1.60;;
23270;SDS011;11804;51.118;17.058;2023-04-30T09:59:30;2.83;;;2.00;;
23270;SDS011;11804;51.118;17.058;2023-04-30T10:02:01;1.92;;;1.22;;
23270;SDS011;11804;51.118;17.058;2023-04-30T10:04:34;3.47;;;1.57;;
23270;SDS011;11804;51.118;17.058;2023-04-30T10:07:04;2.67;;;1.62;;
23270;SDS011;11804;51.118;17.058;2023-04-30T10:09:35;2.08;;;1.22;;
23270;SDS011;11804;51.118;17.058;2023-04-30T10:12:04;2.58;;;1.30;;
23270;SDS011;11804;51.118;17.058;2023-04-30T10:14:49;2.85;;;1.40;;
23270;SDS011;11804;51.118;17.058;2023-04-30T10:17:17;2.60;;;1.40;;
23270;SDS011;11804;51.118;17.058;2023-04-30T10:19:48;1.75;;;1.25;;
23270;SDS011;11804;51.118;17.058;2023-04-30T10:22:18;1.42;;;1.15;;
23270;SDS011;11804;51.118;17.058;2023-04-30T10:24:49;1.87;;;1.30;;
23270;SDS011;11804;51.118;17.058;2023-04-30T10:27:18;1.75;;;1.27;;
23270;SDS011;11804;51.118;17.058;2023-04-30T10:29:46;2.25;;;1.20;;
23270;SDS011;11804;51.118;17.058;2023-04-30T10:32:14;2.00;;;1.42;;
23270;SDS011;11804;51.118;17.058;2023-04-30T10:40:08;2.83;;;1.32;;
23270;SDS011;11804;51.118;17.058;2023-04-30T10:42:36;1.55;;;1.00;;
23270;SDS011;11804;51.118;17.058;2023-04-30T10:45:08;3.02;;;1.55;;
23270;SDS011;11804;51.118;17.058;2023-04-30T10:47:37;2.55;;;1.67;;
23270;SDS011;11804;51.118;17.058;2023-04-30T10:50:10;4.83;;;1.57;;
23270;SDS011;11804;51.118;17.058;2023-04-30T10:52:44;2.37;;;1.37;;
23270;SDS011;11804;51.118;17.058;2023-04-30T10:55:09;1.65;;;1.27;;
23270;SDS011;11804;51.118;17.058;2023-04-30T10:57:42;5.50;;;1.35;;
23270;SDS011;11804;51.118;17.058;2023-04-30T11:02:46;4.78;;;1.77;;
23270;SDS011;11804;51.118;17.058;2023-04-30T11:05:15;3.20;;;1.37;;
23270;SDS011;11804;51.118;17.058;2023-04-30T11:07:50;2.60;;;1.40;;
23270;SDS011;11804;51.118;17.058;2023-04-30T11:10:25;2.08;;;1.30;;
23270;SDS011;11804;51.118;17.058;2023-04-30T11:12:54;2.90;;;1.32;;
23270;SDS011;11804;51.118;17.058;2023-04-30T11:15:26;3.75;;;1.40;;
23270;SDS011;11804;51.118;17.058;2023-04-30T11:17:56;2.62;;;1.80;;
23270;SDS011;11804;51.118;17.058;2023-04-30T11:20:29;4.28;;;2.15;;
23270;SDS011;11804;51.118;17.058;2023-04-30T11:25:48;3.62;;;1.20;;
23270;SDS011;11804;51.118;17.058;2023-04-30T11:28:14;1.52;;;1.10;;
23270;SDS011;11804;51.118;17.058;2023-04-30T11:30:59;1.75;;;1.10;;
23270;SDS011;11804;51.118;17.058;2023-04-30T11:33:28;2.62;;;1.45;;
23270;SDS011;11804;51.118;17.058;2023-04-30T11:35:58;2.50;;;1.25;;
23270;SDS011;11804;51.118;17.058;2023-04-30T11:38:31;3.30;;;1.65;;
23270;SDS011;11804;51.118;17.058;2023-04-30T11:41:03;2.45;;;1.30;;
23270;SDS011;11804;51.118;17.058;2023-04-30T11:43:31;2.58;;;1.27;;
23270;SDS011;11804;51.118;17.058;2023-04-30T11:46:09;1.80;;;1.10;;
23270;SDS011;11804;51.118;17.058;2023-04-30T11:48:39;2.47;;;1.20;;
23270;SDS011;11804;51.118;17.058;2023-04-30T11:51:14;2.20;;;1.27;;
23270;SDS011;11804;51.118;17.058;2023-04-30T11:53:48;1.97;;;1.30;;
23270;SDS011;11804;51.118;17.058;2023-04-30T11:56:17;1.90;;;1.33;;
23270;SDS011;11804;51.118;17.058;2023-04-30T11:58:53;2.17;;;1.30;;
23270;SDS011;11804;51.118;17.058;2023-04-30T12:01:20;1.40;;;1.00;;
23270;SDS011;11804;51.118;17.058;2023-04-30T12:03:50;1.32;;;0.93;;
23270;SDS011;11804;51.118;17.058;2023-04-30T12:06:26;0.98;;;0.85;;
23270;SDS011;11804;51.118;17.058;2023-04-30T12:08:53;2.22;;;1.07;;
23270;SDS011;11804;51.118;17.058;2023-04-30T12:11:23;2.02;;;1.30;;
23270;SDS011;11804;51.118;17.058;2023-04-30T12:13:53;2.37;;;1.05;;
23270;SDS011;11804;51.118;17.058;2023-04-30T12:16:23;1.30;;;0.80;;
23270;SDS011;11804;51.118;17.058;2023-04-30T12:18:51;1.50;;;1.00;;
23270;SDS011;11804;51.118;17.058;2023-04-30T12:21:20;2.55;;;0.85;;
23270;SDS011;11804;51.118;17.058;2023-04-30T12:23:53;2.60;;;1.10;;
23270;SDS011;11804;51.118;17.058;2023-04-30T12:26:21;1.62;;;1.00;;
23270;SDS011;11804;51.118;17.058;2023-04-30T12:28:49;4.85;;;1.40;;
23270;SDS011;11804;51.118;17.058;2023-04-30T12:31:18;3.00;;;1.27;;
23270;SDS011;11804;51.118;17.058;2023-04-30T12:33:53;2.35;;;0.98;;
23270;SDS011;11804;51.118;17.058;2023-04-30T12:36:27;3.25;;;0.90;;
23270;SDS011;11804;51.118;17.058;2023-04-30T12:39:05;2.90;;;1.05;;
23270;SDS011;11804;51.118;17.058;2023-04-30T12:41:34;1.47;;;0.90;;
23270;SDS011;11804;51.118;17.058;2023-04-30T12:44:24;1.63;;;1.07;;
23270;SDS011;11804;51.118;17.058;2023-04-30T12:46:59;2.87;;;0.90;;
23270;SDS011;11804;51.118;17.058;2023-04-30T12:49:26;2.27;;;0.90;;
23270;SDS011;11804;51.118;17.058;2023-04-30T12:54:36;5.90;;;1.22;;
23270;SDS011;11804;51.118;17.058;2023-04-30T12:57:05;1.40;;;0.90;;
23270;SDS011;11804;51.118;17.058;2023-04-30T12:59:39;2.20;;;1.13;;
23270;SDS011;11804;51.118;17.058;2023-04-30T13:02:24;2.80;;;1.30;;
23270;SDS011;11804;51.118;17.058;2023-04-30T13:05:01;2.47;;;0.97;;
23270;SDS011;11804;51.118;17.058;2023-04-30T13:07:26;4.15;;;1.35;;
23270;SDS011;11804;51.118;17.058;2023-04-30T13:09:56;2.83;;;1.50;;
23270;SDS011;11804;51.118;17.058;2023-04-30T13:12:24;1.57;;;0.97;;
23270;SDS011;11804;51.118;17.058;2023-04-30T13:14:51;1.40;;;1.07;;
23270;SDS011;11804;51.118;17.058;2023-04-30T13:17:20;1.73;;;1.17;;
23270;SDS011;11804;51.118;17.058;2023-04-30T13:19:48;1.73;;;1.00;;
23270;SDS011;11804;51.118;17.058;2023-04-30T13:22:15;2.97;;;1.37;;
23270;SDS011;11804;51.118;17.058;2023-04-30T13:24:44;1.50;;;1.10;;
23270;SDS011;11804;51.118;17.058;2023-04-30T13:27:11;2.10;;;1.27;;
23270;SDS011;11804;51.118;17.058;2023-04-30T13:29:39;2.17;;;0.90;;
23270;SDS011;11804;51.118;17.058;2023-04-30T13:32:06;2.33;;;1.30;;
23270;SDS011;11804;51.118;17.058;2023-04-30T13:34:34;2.77;;;1.20;;
23270;SDS011;11804;51.118;17.058;2023-04-30T13:37:02;4.12;;;2.10;;
23270;SDS011;11804;51.118;17.058;2023-04-30T13:39:29;1.93;;;1.23;;
23270;SDS011;11804;51.118;17.058;2023-04-30T13:41:57;2.77;;;1.40;;
23270;SDS011;11804;51.118;17.058;2023-04-30T13:44:26;2.40;;;1.00;;
23270;SDS011;11804;51.118;17.058;2023-04-30T13:46:53;3.37;;;1.47;;
23270;SDS011;11804;51.118;17.058;2023-04-30T13:49:21;2.37;;;1.20;;
23270;SDS011;11804;51.118;17.058;2023-04-30T13:51:49;2.67;;;1.03;;
23270;SDS011;11804;51.118;17.058;2023-04-30T13:54:16;2.10;;;0.90;;
23270;SDS011;11804;51.118;17.058;2023-04-30T13:56:44;2.20;;;1.27;;
23270;SDS011;11804;51.118;17.058;2023-04-30T13:59:14;3.77;;;1.30;;
23270;SDS011;11804;51.118;17.058;2023-04-30T14:01:41;3.43;;;1.07;;
23270;SDS011;11804;51.118;17.058;2023-04-30T14:04:09;2.05;;;1.20;;
23270;SDS011;11804;51.118;17.058;2023-04-30T14:06:37;2.67;;;1.20;;
23270;SDS011;11804;51.118;17.058;2023-04-30T14:09:06;2.23;;;1.47;;
23270;SDS011;11804;51.118;17.058;2023-04-30T14:11:34;1.53;;;1.43;;
23270;SDS011;11804;51.118;17.058;2023-04-30T14:14:02;2.10;;;1.10;;
23270;SDS011;11804;51.118;17.058;2023-04-30T14:16:30;2.40;;;1.20;;
23270;SDS011;11804;51.118;17.058;2023-04-30T14:18:58;2.10;;;1.22;;
23270;SDS011;11804;51.118;17.058;2023-04-30T14:21:25;3.10;;;1.45;;
23270;SDS011;11804;51.118;17.058;2023-04-30T14:23:53;3.10;;;1.22;;
23270;SDS011;11804;51.118;17.058;2023-04-30T14:26:21;2.58;;;1.17;;
23270;SDS011;11804;51.118;17.058;2023-04-30T14:28:49;1.77;;;0.90;;
23270;SDS011;11804;51.118;17.058;2023-04-30T14:31:16;1.60;;;1.10;;
23270;SDS011;11804;51.118;17.058;2023-04-30T14:33:44;1.30;;;1.10;;
23270;SDS011;11804;51.118;17.058;2023-04-30T14:36:12;1.40;;;0.93;;
23270;SDS011;11804;51.118;17.058;2023-04-30T14:38:39;2.17;;;1.33;;
23270;SDS011;11804;51.118;17.058;2023-04-30T14:41:07;3.73;;;1.40;;
23270;SDS011;11804;51.118;17.058;2023-04-30T14:43:34;2.50;;;1.20;;
23270;SDS011;11804;51.118;17.058;2023-04-30T14:46:02;1.53;;;0.97;;
23270;SDS011;11804;51.118;17.058;2023-04-30T14:48:30;2.37;;;0.82;;
23270;SDS011;11804;51.118;17.058;2023-04-30T14:50:58;1.98;;;1.00;;
23270;SDS011;11804;51.118;17.058;2023-04-30T14:53:26;2.50;;;1.37;;
23270;SDS011;11804;51.118;17.058;2023-04-30T14:55:54;1.67;;;1.03;;
23270;SDS011;11804;51.118;17.058;2023-04-30T14:58:22;1.67;;;0.87;;
23270;SDS011;11804;51.118;17.058;2023-04-30T15:00:50;2.17;;;1.10;;
23270;SDS011;11804;51.118;17.058;2023-04-30T15:03:17;1.37;;;1.10;;
23270;SDS011;11804;51.118;17.058;2023-04-30T15:05:46;2.13;;;0.93;;